sensor_id;sensor_type;location;lat;lon;timestamp;temperature;humidity
46438;DHT22;32137;48.728;9.142;2024-03-08T00:00:27;3.90;1.00
46438;DHT22;32137;48.728;9.142;2024-03-08T00:02:52;3.90;1.00
46438;DHT22;32137;48.728;9.142;2024-03-08T00:05:19;3.90;1.00
46438;DHT22;32137;48.728;9.142;2024-03-08T00:07:44;3.90;1.00
46438;DHT22;32137;48.728;9.142;2024-03-08T00:10:10;3.80;1.00
46438;DHT22;32137;48.728;9.142;2024-03-08T00:12:36;3.80;1.00
46438;DHT22;32137;48.728;9.142;2024-03-08T00:15:02;3.80;1.00
46438;DHT22;32137;48.728;9.142;2024-03-08T00:17:27;3.80;1.00
46438;DHT22;32137;48.728;9.142;2024-03-08T00:19:54;3.70;1.00
46438;DHT22;32137;48.728;9.142;2024-03-08T00:22:19;3.70;1.00
46438;DHT22;32137;48.728;9.142;2024-03-08T00:24:45;3.70;1.00
46438;DHT22;32137;48.728;9.142;2024-03-08T00:27:10;3.70;1.00
46438;DHT22;32137;48.728;9.142;2024-03-08T00:29:36;3.70;1.00
46438;DHT22;32137;48.728;9.142;2024-03-08T00:32:04;3.70;1.00
46438;DHT22;32137;48.728;9.142;2024-03-08T00:34:29;3.60;1.00
46438;DHT22;32137;48.728;9.142;2024-03-08T00:36:55;3.60;1.00
46438;DHT22;32137;48.728;9.142;2024-03-08T00:39:20;3.60;1.00
46438;DHT22;32137;48.728;9.142;2024-03-08T00:41:46;3.60;1.00
46438;DHT22;32137;48.728;9.142;2024-03-08T00:44:12;3.60;1.00
46438;DHT22;32137;48.728;9.142;2024-03-08T00:46:38;3.50;1.00
46438;DHT22;32137;48.728;9.142;2024-03-08T00:49:03;3.50;1.00
46438;DHT22;32137;48.728;9.142;2024-03-08T00:51:29;3.50;1.00
46438;DHT22;32137;48.728;9.142;2024-03-08T00:53:54;3.50;1.00
46438;DHT22;32137;48.728;9.142;2024-03-08T00:56:20;3.50;1.00
46438;DHT22;32137;48.728;9.142;2024-03-08T00:58:46;3.50;1.00
46438;DHT22;32137;48.728;9.142;2024-03-08T01:01:12;3.40;1.00
46438;DHT22;32137;48.728;9.142;2024-03-08T01:03:38;3.50;1.00
46438;DHT22;32137;48.728;9.142;2024-03-08T01:06:03;3.40;1.00
46438;DHT22;32137;48.728;9.142;2024-03-08T01:08:29;3.40;1.00
46438;DHT22;32137;48.728;9.142;2024-03-08T01:10:55;3.40;1.00
46438;DHT22;32137;48.728;9.142;2024-03-08T01:13:20;3.40;1.00
46438;DHT22;32137;48.728;9.142;2024-03-08T01:15:46;3.40;1.00
46438;DHT22;32137;48.728;9.142;2024-03-08T01:18:12;3.30;1.00
46438;DHT22;32137;48.728;9.142;2024-03-08T01:20:37;3.30;1.00
46438;DHT22;32137;48.728;9.142;2024-03-08T01:23:03;3.30;1.00
46438;DHT22;32137;48.728;9.142;2024-03-08T01:25:31;3.30;1.00
46438;DHT22;32137;48.728;9.142;2024-03-08T01:27:57;3.30;1.00
46438;DHT22;32137;48.728;9.142;2024-03-08T01:30:22;3.30;1.00
46438;DHT22;32137;48.728;9.142;2024-03-08T01:32:48;3.20;1.00
46438;DHT22;32137;48.728;9.142;2024-03-08T01:35:14;3.20;1.00
46438;DHT22;32137;48.728;9.142;2024-03-08T01:37:39;3.20;1.00
46438;DHT22;32137;48.728;9.142;2024-03-08T01:40:05;3.20;1.00
46438;DHT22;32137;48.728;9.142;2024-03-08T01:42:30;3.10;1.00
46438;DHT22;32137;48.728;9.142;2024-03-08T01:44:56;3.10;1.00
46438;DHT22;32137;48.728;9.142;2024-03-08T01:47:22;3.10;1.00
46438;DHT22;32137;48.728;9.142;2024-03-08T01:49:50;3.10;3.10
46438;DHT22;32137;48.728;9.142;2024-03-08T01:52:16;3.00;1.00
46438;DHT22;32137;48.728;9.142;2024-03-08T01:54:43;3.00;1.00
46438;DHT22;32137;48.728;9.142;2024-03-08T01:57:09;3.00;1.00
46438;DHT22;32137;48.728;9.142;2024-03-08T01:59:35;2.90;1.00
46438;DHT22;32137;48.728;9.142;2024-03-08T02:02:01;2.90;1.00
46438;DHT22;32137;48.728;9.142;2024-03-08T02:04:28;2.90;1.00
46438;DHT22;32137;48.728;9.142;2024-03-08T02:06:56;2.80;1.00
46438;DHT22;32137;48.728;9.142;2024-03-08T02:09:23;2.80;1.00
46438;DHT22;32137;48.728;9.142;2024-03-08T02:11:50;2.80;1.00
46438;DHT22;32137;48.728;9.142;2024-03-08T02:14:15;2.80;1.00
46438;DHT22;32137;48.728;9.142;2024-03-08T02:16:42;2.80;1.00
46438;DHT22;32137;48.728;9.142;2024-03-08T02:19:07;2.80;1.00
46438;DHT22;32137;48.728;9.142;2024-03-08T02:21:35;2.80;1.00
46438;DHT22;32137;48.728;9.142;2024-03-08T02:24:01;2.80;1.00
46438;DHT22;32137;48.728;9.142;2024-03-08T02:26:27;2.80;1.00
46438;DHT22;32137;48.728;9.142;2024-03-08T02:28:52;2.80;1.00
46438;DHT22;32137;48.728;9.142;2024-03-08T02:31:18;2.70;1.00
46438;DHT22;32137;48.728;9.142;2024-03-08T02:33:43;2.70;1.00
46438;DHT22;32137;48.728;9.142;2024-03-08T02:36:09;2.70;1.00
46438;DHT22;32137;48.728;9.142;2024-03-08T02:38:34;2.80;1.00
46438;DHT22;32137;48.728;9.142;2024-03-08T02:40:59;2.70;1.00
46438;DHT22;32137;48.728;9.142;2024-03-08T02:43:25;2.70;1.00
46438;DHT22;32137;48.728;9.142;2024-03-08T02:45:50;2.70;1.00
46438;DHT22;32137;48.728;9.142;2024-03-08T02:48:18;2.60;1.00
46438;DHT22;32137;48.728;9.142;2024-03-08T02:50:43;2.70;1.00
46438;DHT22;32137;48.728;9.142;2024-03-08T02:53:09;2.60;1.00
46438;DHT22;32137;48.728;9.142;2024-03-08T02:55:36;2.60;1.00
46438;DHT22;32137;48.728;9.142;2024-03-08T02:58:02;2.60;1.00
46438;DHT22;32137;48.728;9.142;2024-03-08T03:00:33;2.60;1.00
46438;DHT22;32137;48.728;9.142;2024-03-08T03:02:59;2.60;1.00
46438;DHT22;32137;48.728;9.142;2024-03-08T03:05:25;2.60;1.00
46438;DHT22;32137;48.728;9.142;2024-03-08T03:07:50;2.60;1.00
46438;DHT22;32137;48.728;9.142;2024-03-08T03:10:16;2.60;1.00
46438;DHT22;32137;48.728;9.142;2024-03-08T03:12:42;2.60;1.00
46438;DHT22;32137;48.728;9.142;2024-03-08T03:15:08;2.50;1.00
46438;DHT22;32137;48.728;9.142;2024-03-08T03:17:33;2.50;1.00
46438;DHT22;32137;48.728;9.142;2024-03-08T03:19:59;2.50;1.00
46438;DHT22;32137;48.728;9.142;2024-03-08T03:22:24;2.50;1.00
46438;DHT22;32137;48.728;9.142;2024-03-08T03:24:50;2.40;1.00
46438;DHT22;32137;48.728;9.142;2024-03-08T03:27:17;2.50;1.00
46438;DHT22;32137;48.728;9.142;2024-03-08T03:29:43;2.40;1.00
46438;DHT22;32137;48.728;9.142;2024-03-08T03:32:11;2.30;1.00
46438;DHT22;32137;48.728;9.142;2024-03-08T03:34:37;2.30;1.00
46438;DHT22;32137;48.728;9.142;2024-03-08T03:37:03;2.30;1.00
46438;DHT22;32137;48.728;9.142;2024-03-08T03:39:29;2.20;1.00
46438;DHT22;32137;48.728;9.142;2024-03-08T03:41:58;2.20;1.00
46438;DHT22;32137;48.728;9.142;2024-03-08T03:44:24;2.20;1.00
46438;DHT22;32137;48.728;9.142;2024-03-08T03:46:49;2.20;1.00
46438;DHT22;32137;48.728;9.142;2024-03-08T03:49:16;2.20;1.00
46438;DHT22;32137;48.728;9.142;2024-03-08T03:51:42;2.20;1.00
46438;DHT22;32137;48.728;9.142;2024-03-08T03:54:07;2.20;1.00
46438;DHT22;32137;48.728;9.142;2024-03-08T03:56:33;2.20;2.10
46438;DHT22;32137;48.728;9.142;2024-03-08T03:58:58;2.20;1.00
46438;DHT22;32137;48.728;9.142;2024-03-08T04:01:24;2.20;1.00
46438;DHT22;32137;48.728;9.142;2024-03-08T04:03:49;2.20;1.00
46438;DHT22;32137;48.728;9.142;2024-03-08T04:06:15;2.10;1.00
46438;DHT22;32137;48.728;9.142;2024-03-08T04:08:40;2.20;12.70
46438;DHT22;32137;48.728;9.142;2024-03-08T04:11:06;2.20;8.80
46438;DHT22;32137;48.728;9.142;2024-03-08T04:13:33;2.10;16.60
46438;DHT22;32137;48.728;9.142;2024-03-08T04:15:59;2.10;10.90
46438;DHT22;32137;48.728;9.142;2024-03-08T04:18:25;2.10;11.40
46438;DHT22;32137;48.728;9.142;2024-03-08T04:20:50;2.00;22.20
46438;DHT22;32137;48.728;9.142;2024-03-08T04:23:16;2.10;22.60
46438;DHT22;32137;48.728;9.142;2024-03-08T04:25:43;2.00;25.10
46438;DHT22;32137;48.728;9.142;2024-03-08T04:28:08;2.00;14.00
46438;DHT22;32137;48.728;9.142;2024-03-08T04:30:37;2.00;31.30
46438;DHT22;32137;48.728;9.142;2024-03-08T04:33:03;2.00;19.90
46438;DHT22;32137;48.728;9.142;2024-03-08T04:35:28;2.00;32.10
46438;DHT22;32137;48.728;9.142;2024-03-08T04:37:54;1.90;23.40
46438;DHT22;32137;48.728;9.142;2024-03-08T04:40:19;1.90;28.20
46438;DHT22;32137;48.728;9.142;2024-03-08T04:42:45;1.90;36.60
46438;DHT22;32137;48.728;9.142;2024-03-08T04:45:10;1.90;47.10
46438;DHT22;32137;48.728;9.142;2024-03-08T04:47:36;1.90;40.40
46438;DHT22;32137;48.728;9.142;2024-03-08T04:50:02;1.90;32.90
46438;DHT22;32137;48.728;9.142;2024-03-08T04:52:27;1.80;45.80
46438;DHT22;32137;48.728;9.142;2024-03-08T04:54:53;1.80;50.20
46438;DHT22;32137;48.728;9.142;2024-03-08T04:57:19;1.80;55.50
46438;DHT22;32137;48.728;9.142;2024-03-08T04:59:44;1.80;59.10
46438;DHT22;32137;48.728;9.142;2024-03-08T05:02:10;1.80;37.20
46438;DHT22;32137;48.728;9.142;2024-03-08T05:04:36;1.70;52.90
46438;DHT22;32137;48.728;9.142;2024-03-08T05:07:02;1.70;69.60
46438;DHT22;32137;48.728;9.142;2024-03-08T05:09:27;1.80;83.70
46438;DHT22;32137;48.728;9.142;2024-03-08T05:11:54;1.70;61.60
46438;DHT22;32137;48.728;9.142;2024-03-08T05:14:20;1.70;64.50
46438;DHT22;32137;48.728;9.142;2024-03-08T05:16:46;1.70;59.70
46438;DHT22;32137;48.728;9.142;2024-03-08T05:19:14;1.70;74.00
46438;DHT22;32137;48.728;9.142;2024-03-08T05:21:42;1.70;83.10
46438;DHT22;32137;48.728;9.142;2024-03-08T05:24:08;1.70;55.50
46438;DHT22;32137;48.728;9.142;2024-03-08T05:26:35;1.60;82.80
46438;DHT22;32137;48.728;9.142;2024-03-08T05:29:00;1.60;80.10
46438;DHT22;32137;48.728;9.142;2024-03-08T05:31:26;1.60;68.70
46438;DHT22;32137;48.728;9.142;2024-03-08T05:33:51;1.60;74.20
46438;DHT22;32137;48.728;9.142;2024-03-08T05:36:19;1.60;90.10
46438;DHT22;32137;48.728;9.142;2024-03-08T05:38:44;1.60;86.90
46438;DHT22;32137;48.728;9.142;2024-03-08T05:41:10;1.60;83.00
46438;DHT22;32137;48.728;9.142;2024-03-08T05:43:37;1.50;87.20
46438;DHT22;32137;48.728;9.142;2024-03-08T05:46:02;1.60;83.10
46438;DHT22;32137;48.728;9.142;2024-03-08T05:48:30;1.50;85.10
46438;DHT22;32137;48.728;9.142;2024-03-08T05:50:57;1.50;97.80
46438;DHT22;32137;48.728;9.142;2024-03-08T05:53:23;1.50;90.80
46438;DHT22;32137;48.728;9.142;2024-03-08T05:55:48;1.50;90.70
46438;DHT22;32137;48.728;9.142;2024-03-08T05:58:14;1.50;97.50
46438;DHT22;32137;48.728;9.142;2024-03-08T06:00:40;1.50;97.00
46438;DHT22;32137;48.728;9.142;2024-03-08T06:03:05;1.50;99.60
46438;DHT22;32137;48.728;9.142;2024-03-08T06:05:31;1.40;99.90
46438;DHT22;32137;48.728;9.142;2024-03-08T06:07:56;1.50;99.90
46438;DHT22;32137;48.728;9.142;2024-03-08T06:10:22;1.50;99.90
46438;DHT22;32137;48.728;9.142;2024-03-08T06:12:47;1.40;99.90
46438;DHT22;32137;48.728;9.142;2024-03-08T06:15:13;1.40;99.90
46438;DHT22;32137;48.728;9.142;2024-03-08T06:17:41;1.50;99.90
46438;DHT22;32137;48.728;9.142;2024-03-08T06:20:07;1.50;99.90
46438;DHT22;32137;48.728;9.142;2024-03-08T06:22:39;1.40;99.90
46438;DHT22;32137;48.728;9.142;2024-03-08T06:25:07;1.50;99.90
46438;DHT22;32137;48.728;9.142;2024-03-08T06:27:33;1.50;99.90
46438;DHT22;32137;48.728;9.142;2024-03-08T06:29:59;1.50;99.90
46438;DHT22;32137;48.728;9.142;2024-03-08T06:32:25;1.60;99.90
46438;DHT22;32137;48.728;9.142;2024-03-08T06:34:50;1.70;99.90
46438;DHT22;32137;48.728;9.142;2024-03-08T06:37:16;1.70;99.90
46438;DHT22;32137;48.728;9.142;2024-03-08T06:39:49;1.70;99.00
46438;DHT22;32137;48.728;9.142;2024-03-08T06:42:16;1.80;97.10
46438;DHT22;32137;48.728;9.142;2024-03-08T06:44:42;1.80;99.10
46438;DHT22;32137;48.728;9.142;2024-03-08T06:47:14;1.90;96.00
46438;DHT22;32137;48.728;9.142;2024-03-08T06:49:40;1.90;91.40
46438;DHT22;32137;48.728;9.142;2024-03-08T06:52:06;2.00;81.00
46438;DHT22;32137;48.728;9.142;2024-03-08T06:54:36;2.00;89.00
46438;DHT22;32137;48.728;9.142;2024-03-08T06:57:04;2.10;90.00
46438;DHT22;32137;48.728;9.142;2024-03-08T06:59:33;2.20;79.00
46438;DHT22;32137;48.728;9.142;2024-03-08T07:02:01;2.20;69.40
46438;DHT22;32137;48.728;9.142;2024-03-08T07:04:26;2.20;75.30
46438;DHT22;32137;48.728;9.142;2024-03-08T07:06:57;2.30;79.30
46438;DHT22;32137;48.728;9.142;2024-03-08T07:09:23;2.40;53.80
46438;DHT22;32137;48.728;9.142;2024-03-08T07:11:50;2.50;60.70
46438;DHT22;32137;48.728;9.142;2024-03-08T07:14:23;2.50;31.00
46438;DHT22;32137;48.728;9.142;2024-03-08T07:16:49;2.60;41.10
46438;DHT22;32137;48.728;9.142;2024-03-08T07:19:14;2.70;24.00
46438;DHT22;32137;48.728;9.142;2024-03-08T07:21:41;2.70;23.20
46438;DHT22;32137;48.728;9.142;2024-03-08T07:24:07;2.80;15.80
46438;DHT22;32137;48.728;9.142;2024-03-08T07:26:53;2.80;12.30
46438;DHT22;32137;48.728;9.142;2024-03-08T07:29:19;2.80;5.40
46438;DHT22;32137;48.728;9.142;2024-03-08T07:31:44;2.90;9.90
46438;DHT22;32137;48.728;9.142;2024-03-08T07:34:16;3.00;1.00
46438;DHT22;32137;48.728;9.142;2024-03-08T07:36:42;3.00;1.00
46438;DHT22;32137;48.728;9.142;2024-03-08T07:39:07;3.00;1.00
46438;DHT22;32137;48.728;9.142;2024-03-08T07:41:40;3.10;1.00
46438;DHT22;32137;48.728;9.142;2024-03-08T07:44:06;3.20;1.00
46438;DHT22;32137;48.728;9.142;2024-03-08T07:46:31;3.20;1.00
46438;DHT22;32137;48.728;9.142;2024-03-08T07:48:59;3.30;1.00
46438;DHT22;32137;48.728;9.142;2024-03-08T07:51:25;3.20;1.00
46438;DHT22;32137;48.728;9.142;2024-03-08T07:53:50;3.30;1.00
46438;DHT22;32137;48.728;9.142;2024-03-08T07:56:16;3.40;1.00
46438;DHT22;32137;48.728;9.142;2024-03-08T07:58:44;3.40;1.00
46438;DHT22;32137;48.728;9.142;2024-03-08T08:01:16;3.40;1.00
46438;DHT22;32137;48.728;9.142;2024-03-08T08:03:41;3.50;1.00
46438;DHT22;32137;48.728;9.142;2024-03-08T08:06:07;3.50;1.00
46438;DHT22;32137;48.728;9.142;2024-03-08T08:08:32;3.50;1.00
46438;DHT22;32137;48.728;9.142;2024-03-08T08:10:58;3.50;1.00
46438;DHT22;32137;48.728;9.142;2024-03-08T08:13:24;3.50;1.00
46438;DHT22;32137;48.728;9.142;2024-03-08T08:15:50;3.60;1.00
46438;DHT22;32137;48.728;9.142;2024-03-08T08:18:15;3.60;1.00
46438;DHT22;32137;48.728;9.142;2024-03-08T08:20:41;3.60;1.00
46438;DHT22;32137;48.728;9.142;2024-03-08T08:23:06;3.60;1.00
46438;DHT22;32137;48.728;9.142;2024-03-08T08:25:32;3.60;1.00
46438;DHT22;32137;48.728;9.142;2024-03-08T08:27:59;3.60;1.00
46438;DHT22;32137;48.728;9.142;2024-03-08T08:30:25;3.70;1.00
46438;DHT22;32137;48.728;9.142;2024-03-08T08:32:50;3.70;1.00
46438;DHT22;32137;48.728;9.142;2024-03-08T08:35:16;3.80;1.00
46438;DHT22;32137;48.728;9.142;2024-03-08T08:37:41;3.80;1.00
46438;DHT22;32137;48.728;9.142;2024-03-08T08:40:07;3.80;1.00
46438;DHT22;32137;48.728;9.142;2024-03-08T08:42:40;3.90;1.00
46438;DHT22;32137;48.728;9.142;2024-03-08T08:45:05;3.90;1.00
46438;DHT22;32137;48.728;9.142;2024-03-08T08:47:37;3.90;1.00
46438;DHT22;32137;48.728;9.142;2024-03-08T08:50:03;3.90;1.00
46438;DHT22;32137;48.728;9.142;2024-03-08T08:52:32;4.00;1.00
46438;DHT22;32137;48.728;9.142;2024-03-08T08:54:57;4.00;1.00
46438;DHT22;32137;48.728;9.142;2024-03-08T08:57:23;4.10;1.00
46438;DHT22;32137;48.728;9.142;2024-03-08T08:59:49;4.10;1.00
46438;DHT22;32137;48.728;9.142;2024-03-08T09:02:15;4.20;1.00
46438;DHT22;32137;48.728;9.142;2024-03-08T09:04:42;4.10;1.00
46438;DHT22;32137;48.728;9.142;2024-03-08T09:07:08;4.20;1.00
46438;DHT22;32137;48.728;9.142;2024-03-08T09:09:34;4.20;1.00
46438;DHT22;32137;48.728;9.142;2024-03-08T09:12:00;4.20;1.00
46438;DHT22;32137;48.728;9.142;2024-03-08T09:14:26;4.10;1.00
46438;DHT22;32137;48.728;9.142;2024-03-08T09:16:51;4.10;1.00
46438;DHT22;32137;48.728;9.142;2024-03-08T09:19:17;4.20;1.00
46438;DHT22;32137;48.728;9.142;2024-03-08T09:21:44;4.20;1.00
46438;DHT22;32137;48.728;9.142;2024-03-08T09:24:10;4.30;1.00
46438;DHT22;32137;48.728;9.142;2024-03-08T09:26:35;4.30;1.00
46438;DHT22;32137;48.728;9.142;2024-03-08T09:29:01;4.30;1.00
46438;DHT22;32137;48.728;9.142;2024-03-08T09:31:27;4.30;1.00
46438;DHT22;32137;48.728;9.142;2024-03-08T09:33:52;4.30;1.00
46438;DHT22;32137;48.728;9.142;2024-03-08T09:36:17;4.30;1.00
46438;DHT22;32137;48.728;9.142;2024-03-08T09:38:43;4.40;1.00
46438;DHT22;32137;48.728;9.142;2024-03-08T09:41:09;4.40;1.00
46438;DHT22;32137;48.728;9.142;2024-03-08T09:43:35;4.50;1.00
46438;DHT22;32137;48.728;9.142;2024-03-08T09:46:01;4.50;1.00
46438;DHT22;32137;48.728;9.142;2024-03-08T09:48:27;4.50;1.00
46438;DHT22;32137;48.728;9.142;2024-03-08T09:50:54;4.60;99.90
46438;DHT22;32137;48.728;9.142;2024-03-08T09:53:20;4.60;99.90
46438;DHT22;32137;48.728;9.142;2024-03-08T09:55:47;4.60;1.00
46438;DHT22;32137;48.728;9.142;2024-03-08T09:58:15;4.70;1.00
46438;DHT22;32137;48.728;9.142;2024-03-08T10:00:53;4.80;99.90
46438;DHT22;32137;48.728;9.142;2024-03-08T10:03:19;4.90;99.90
46438;DHT22;32137;48.728;9.142;2024-03-08T10:05:45;4.90;99.90
46438;DHT22;32137;48.728;9.142;2024-03-08T10:08:10;5.00;99.90
46438;DHT22;32137;48.728;9.142;2024-03-08T10:10:39;5.00;99.90
46438;DHT22;32137;48.728;9.142;2024-03-08T10:13:05;5.00;99.90
46438;DHT22;32137;48.728;9.142;2024-03-08T10:15:31;4.90;99.90
46438;DHT22;32137;48.728;9.142;2024-03-08T10:17:58;5.00;99.90
46438;DHT22;32137;48.728;9.142;2024-03-08T10:20:23;5.10;99.90
46438;DHT22;32137;48.728;9.142;2024-03-08T10:22:49;5.10;99.90
46438;DHT22;32137;48.728;9.142;2024-03-08T10:25:15;5.20;99.90
46438;DHT22;32137;48.728;9.142;2024-03-08T10:27:40;5.20;99.90
46438;DHT22;32137;48.728;9.142;2024-03-08T10:30:08;5.10;99.90
46438;DHT22;32137;48.728;9.142;2024-03-08T10:32:35;5.10;99.90
46438;DHT22;32137;48.728;9.142;2024-03-08T10:35:01;5.30;99.90
46438;DHT22;32137;48.728;9.142;2024-03-08T10:37:26;5.40;99.90
46438;DHT22;32137;48.728;9.142;2024-03-08T10:40:04;5.50;99.90
46438;DHT22;32137;48.728;9.142;2024-03-08T10:42:38;5.50;99.90
46438;DHT22;32137;48.728;9.142;2024-03-08T10:45:05;5.60;99.90
46438;DHT22;32137;48.728;9.142;2024-03-08T10:47:38;5.60;99.90
46438;DHT22;32137;48.728;9.142;2024-03-08T10:52:34;5.80;99.90
46438;DHT22;32137;48.728;9.142;2024-03-08T10:55:02;5.90;99.90
46438;DHT22;32137;48.728;9.142;2024-03-08T10:57:27;6.00;99.90
46438;DHT22;32137;48.728;9.142;2024-03-08T10:59:53;6.10;99.90
46438;DHT22;32137;48.728;9.142;2024-03-08T11:02:20;6.20;99.90
46438;DHT22;32137;48.728;9.142;2024-03-08T11:04:49;6.30;99.90
46438;DHT22;32137;48.728;9.142;2024-03-08T11:07:15;6.60;99.90
46438;DHT22;32137;48.728;9.142;2024-03-08T11:09:47;6.60;99.90
46438;DHT22;32137;48.728;9.142;2024-03-08T11:12:28;6.60;99.90
46438;DHT22;32137;48.728;9.142;2024-03-08T11:15:00;6.60;99.90
46438;DHT22;32137;48.728;9.142;2024-03-08T11:17:39;6.80;99.90
46438;DHT22;32137;48.728;9.142;2024-03-08T11:22:53;6.90;99.90
46438;DHT22;32137;48.728;9.142;2024-03-08T11:25:35;7.00;99.90
46438;DHT22;32137;48.728;9.142;2024-03-08T11:28:09;7.10;99.90
46438;DHT22;32137;48.728;9.142;2024-03-08T11:30:36;6.90;99.90
46438;DHT22;32137;48.728;9.142;2024-03-08T11:33:03;6.80;99.90
46438;DHT22;32137;48.728;9.142;2024-03-08T11:35:29;6.90;99.90
46438;DHT22;32137;48.728;9.142;2024-03-08T11:37:54;7.00;99.90
46438;DHT22;32137;48.728;9.142;2024-03-08T11:40:23;7.10;99.90
46438;DHT22;32137;48.728;9.142;2024-03-08T11:42:49;7.30;99.90
46438;DHT22;32137;48.728;9.142;2024-03-08T11:45:16;7.40;99.00
46438;DHT22;32137;48.728;9.142;2024-03-08T11:47:43;7.50;77.00
46438;DHT22;32137;48.728;9.142;2024-03-08T11:50:11;7.70;40.60
46438;DHT22;32137;48.728;9.142;2024-03-08T11:52:37;7.90;82.50
46438;DHT22;32137;48.728;9.142;2024-03-08T11:55:03;8.20;19.20
46438;DHT22;32137;48.728;9.142;2024-03-08T11:57:30;8.30;8.60
46438;DHT22;32137;48.728;9.142;2024-03-08T11:59:55;8.40;1.00
46438;DHT22;32137;48.728;9.142;2024-03-08T12:02:31;8.60;1.00
46438;DHT22;32137;48.728;9.142;2024-03-08T12:04:57;8.50;1.00
46438;DHT22;32137;48.728;9.142;2024-03-08T12:07:25;8.50;1.00
46438;DHT22;32137;48.728;9.142;2024-03-08T12:12:41;8.50;1.00
46438;DHT22;32137;48.728;9.142;2024-03-08T12:15:07;8.50;1.00
46438;DHT22;32137;48.728;9.142;2024-03-08T12:17:33;8.60;1.00
46438;DHT22;32137;48.728;9.142;2024-03-08T12:20:10;8.80;1.00
46438;DHT22;32137;48.728;9.142;2024-03-08T12:22:40;9.10;1.00
46438;DHT22;32137;48.728;9.142;2024-03-08T12:25:06;9.30;1.00
46438;DHT22;32137;48.728;9.142;2024-03-08T12:27:36;9.20;1.00
46438;DHT22;32137;48.728;9.142;2024-03-08T12:30:18;9.40;1.00
46438;DHT22;32137;48.728;9.142;2024-03-08T12:32:52;9.50;1.00
46438;DHT22;32137;48.728;9.142;2024-03-08T12:35:19;9.40;1.00
46438;DHT22;32137;48.728;9.142;2024-03-08T12:37:48;9.40;1.00
46438;DHT22;32137;48.728;9.142;2024-03-08T12:40:14;9.50;1.00
46438;DHT22;32137;48.728;9.142;2024-03-08T12:42:42;9.70;1.00
46438;DHT22;32137;48.728;9.142;2024-03-08T12:45:08;9.80;1.00
46438;DHT22;32137;48.728;9.142;2024-03-08T12:47:35;10.00;1.00
46438;DHT22;32137;48.728;9.142;2024-03-08T12:50:01;9.90;99.90
46438;DHT22;32137;48.728;9.142;2024-03-08T12:52:26;10.00;99.90
46438;DHT22;32137;48.728;9.142;2024-03-08T12:54:52;9.90;99.90
46438;DHT22;32137;48.728;9.142;2024-03-08T12:57:18;10.00;99.90
46438;DHT22;32137;48.728;9.142;2024-03-08T12:59:43;10.40;99.90
46438;DHT22;32137;48.728;9.142;2024-03-08T13:02:10;11.40;99.90
46438;DHT22;32137;48.728;9.142;2024-03-08T13:04:36;13.60;99.90
46438;DHT22;32137;48.728;9.142;2024-03-08T13:07:02;16.10;1.00
46438;DHT22;32137;48.728;9.142;2024-03-08T13:09:27;17.40;99.90
46438;DHT22;32137;48.728;9.142;2024-03-08T13:11:53;17.70;99.90
46438;DHT22;32137;48.728;9.142;2024-03-08T13:14:20;19.30;99.90
46438;DHT22;32137;48.728;9.142;2024-03-08T13:16:46;20.70;99.90
46438;DHT22;32137;48.728;9.142;2024-03-08T13:19:13;21.00;99.90
46438;DHT22;32137;48.728;9.142;2024-03-08T13:21:38;21.00;99.90
46438;DHT22;32137;48.728;9.142;2024-03-08T13:24:04;21.00;99.90
46438;DHT22;32137;48.728;9.142;2024-03-08T13:26:30;20.80;99.90
46438;DHT22;32137;48.728;9.142;2024-03-08T13:28:59;20.70;99.60
46438;DHT22;32137;48.728;9.142;2024-03-08T13:31:24;20.30;98.60
46438;DHT22;32137;48.728;9.142;2024-03-08T13:33:49;20.30;98.50
46438;DHT22;32137;48.728;9.142;2024-03-08T13:36:17;20.00;99.30
46438;DHT22;32137;48.728;9.142;2024-03-08T13:38:46;19.60;99.90
46438;DHT22;32137;48.728;9.142;2024-03-08T13:41:13;19.40;99.50
46438;DHT22;32137;48.728;9.142;2024-03-08T13:43:48;18.90;99.90
46438;DHT22;32137;48.728;9.142;2024-03-08T13:46:18;18.60;99.90
46438;DHT22;32137;48.728;9.142;2024-03-08T13:48:44;18.20;99.90
46438;DHT22;32137;48.728;9.142;2024-03-08T13:51:09;17.90;99.90
46438;DHT22;32137;48.728;9.142;2024-03-08T13:53:40;17.60;99.90
46438;DHT22;32137;48.728;9.142;2024-03-08T13:56:06;17.40;99.90
46438;DHT22;32137;48.728;9.142;2024-03-08T13:58:32;16.80;99.90
46438;DHT22;32137;48.728;9.142;2024-03-08T14:00:57;16.20;99.90
46438;DHT22;32137;48.728;9.142;2024-03-08T14:03:23;15.70;99.90
46438;DHT22;32137;48.728;9.142;2024-03-08T14:05:51;15.50;99.90
46438;DHT22;32137;48.728;9.142;2024-03-08T14:08:16;15.40;99.90
46438;DHT22;32137;48.728;9.142;2024-03-08T14:10:42;15.30;99.90
46438;DHT22;32137;48.728;9.142;2024-03-08T14:13:08;15.00;99.90
46438;DHT22;32137;48.728;9.142;2024-03-08T14:15:34;14.80;99.90
46438;DHT22;32137;48.728;9.142;2024-03-08T14:18:00;14.90;99.90
46438;DHT22;32137;48.728;9.142;2024-03-08T14:20:26;14.90;99.90
46438;DHT22;32137;48.728;9.142;2024-03-08T14:22:52;14.90;99.90
46438;DHT22;32137;48.728;9.142;2024-03-08T14:25:18;14.90;99.90
46438;DHT22;32137;48.728;9.142;2024-03-08T14:27:44;14.90;99.90
46438;DHT22;32137;48.728;9.142;2024-03-08T14:30:10;14.80;99.90
46438;DHT22;32137;48.728;9.142;2024-03-08T14:32:35;14.70;99.90
46438;DHT22;32137;48.728;9.142;2024-03-08T14:35:04;14.70;99.90
46438;DHT22;32137;48.728;9.142;2024-03-08T14:37:29;14.70;99.90
46438;DHT22;32137;48.728;9.142;2024-03-08T14:39:55;14.70;99.90
46438;DHT22;32137;48.728;9.142;2024-03-08T14:42:21;14.60;99.90
46438;DHT22;32137;48.728;9.142;2024-03-08T14:44:48;14.50;99.90
46438;DHT22;32137;48.728;9.142;2024-03-08T14:47:19;14.40;99.90
46438;DHT22;32137;48.728;9.142;2024-03-08T14:49:44;14.30;99.90
46438;DHT22;32137;48.728;9.142;2024-03-08T14:52:10;14.30;99.90
46438;DHT22;32137;48.728;9.142;2024-03-08T14:54:53;14.30;99.90
46438;DHT22;32137;48.728;9.142;2024-03-08T14:57:18;14.20;99.90
46438;DHT22;32137;48.728;9.142;2024-03-08T14:59:44;14.10;99.90
46438;DHT22;32137;48.728;9.142;2024-03-08T15:02:10;13.90;99.90
46438;DHT22;32137;48.728;9.142;2024-03-08T15:04:35;13.80;99.90
46438;DHT22;32137;48.728;9.142;2024-03-08T15:07:01;13.70;99.90
46438;DHT22;32137;48.728;9.142;2024-03-08T15:09:27;13.60;99.90
46438;DHT22;32137;48.728;9.142;2024-03-08T15:11:53;13.80;99.90
46438;DHT22;32137;48.728;9.142;2024-03-08T15:14:20;13.70;99.90
46438;DHT22;32137;48.728;9.142;2024-03-08T15:16:45;13.50;99.90
46438;DHT22;32137;48.728;9.142;2024-03-08T15:19:13;13.30;99.90
46438;DHT22;32137;48.728;9.142;2024-03-08T15:21:40;13.20;99.90
46438;DHT22;32137;48.728;9.142;2024-03-08T15:24:08;13.10;99.90
46438;DHT22;32137;48.728;9.142;2024-03-08T15:26:43;13.10;99.90
46438;DHT22;32137;48.728;9.142;2024-03-08T15:29:08;13.10;99.90
46438;DHT22;32137;48.728;9.142;2024-03-08T15:31:34;13.00;99.90
46438;DHT22;32137;48.728;9.142;2024-03-08T15:33:59;12.90;99.90
46438;DHT22;32137;48.728;9.142;2024-03-08T15:36:32;12.80;99.90
46438;DHT22;32137;48.728;9.142;2024-03-08T15:38:58;12.70;99.90
46438;DHT22;32137;48.728;9.142;2024-03-08T15:41:24;12.60;99.90
46438;DHT22;32137;48.728;9.142;2024-03-08T15:43:52;12.40;99.90
46438;DHT22;32137;48.728;9.142;2024-03-08T15:46:17;12.30;99.90
46438;DHT22;32137;48.728;9.142;2024-03-08T15:48:47;12.20;99.90
46438;DHT22;32137;48.728;9.142;2024-03-08T15:51:14;12.00;99.90
46438;DHT22;32137;48.728;9.142;2024-03-08T15:53:40;11.90;1.00